Time;durP1;ratioP1;P1;durP2;ratioP2;P2;SDS_P1;SDS_P2;PMS_P1;PMS_P2;Temp;Humidity;BMP_temperature;BMP_pressure;BME280_temperature;BME280_humidity;BME280_pressure;Samples;Min_cycle;Max_cycle;Signal;HPM_P1;HPM_P2
2021/10/09 00:00:07;;;;;;;21.83;9.00;;;6.20;99.90;;;;;;4407991;32;20139;-64
2021/10/09 00:02:34;;;;;;;20.67;10.00;;;6.20;99.90;;;;;;4411618;32;20158;-64
2021/10/09 00:05:01;;;;;;;21.40;10.17;;;6.30;99.90;;;;;;4414441;32;20175;-65
2021/10/09 00:07:28;;;;;;;20.17;9.57;;;6.30;99.90;;;;;;4408538;32;20438;-64
2021/10/09 00:09:59;;;;;;;19.67;9.87;;;6.20;99.90;;;;;;4410138;32;20131;-65
2021/10/09 00:12:27;;;;;;;19.50;9.53;;;6.20;99.90;;;;;;4408232;32;20135;-64
2021/10/09 00:14:54;;;;;;;24.33;10.47;;;6.20;99.90;;;;;;4408247;32;20189;-64
2021/10/09 00:17:23;;;;;;;20.90;10.07;;;6.10;99.90;;;;;;4409944;32;20481;-65
2021/10/09 00:19:51;;;;;;;19.63;9.53;;;6.10;99.90;;;;;;4408357;32;20185;-64
2021/10/09 00:22:18;;;;;;;19.43;9.53;;;6.20;99.90;;;;;;4408259;32;20165;-64
2021/10/09 00:24:45;;;;;;;18.37;9.90;;;6.10;99.90;;;;;;4410202;32;20204;-64
2021/10/09 00:27:13;;;;;;;19.63;9.83;;;6.10;99.90;;;;;;4409732;32;20160;-64
2021/10/09 00:29:40;;;;;;;21.03;9.60;;;6.10;99.90;;;;;;4410082;32;20194;-64
2021/10/09 00:32:07;;;;;;;19.60;9.73;;;6.10;99.90;;;;;;4409914;32;20606;-64
2021/10/09 00:34:34;;;;;;;17.77;9.30;;;6.00;99.90;;;;;;4414630;32;20157;-64
2021/10/09 00:37:00;;;;;;;18.87;9.87;;;6.00;99.90;;;;;;4409178;32;20235;-64
2021/10/09 00:39:27;;;;;;;19.23;10.13;;;6.10;99.90;;;;;;4408200;32;20162;-63
2021/10/09 00:41:54;;;;;;;20.20;11.03;;;6.00;99.90;;;;;;4407942;32;20394;-64
2021/10/09 00:44:21;;;;;;;20.67;10.77;;;6.00;99.90;;;;;;4408237;32;20139;-64
2021/10/09 00:46:47;;;;;;;20.60;10.27;;;5.90;99.90;;;;;;4408907;32;20166;-64
2021/10/09 00:49:15;;;;;;;23.33;10.70;;;6.00;99.90;;;;;;4409173;32;20180;-65
2021/10/09 00:51:43;;;;;;;20.33;10.63;;;5.90;99.90;;;;;;4409894;32;20179;-65
2021/10/09 00:54:12;;;;;;;21.30;10.90;;;5.90;99.90;;;;;;4409898;32;20514;-65
2021/10/09 00:56:43;;;;;;;23.13;11.47;;;5.80;99.90;;;;;;4409537;32;20215;-64
2021/10/09 00:59:10;;;;;;;23.00;11.00;;;5.70;99.90;;;;;;4409453;32;20220;-64
2021/10/09 01:01:37;;;;;;;22.97;10.97;;;5.70;99.90;;;;;;4407842;32;20551;-64
2021/10/09 01:04:05;;;;;;;21.07;10.97;;;5.60;99.90;;;;;;4407150;32;20200;-64
2021/10/09 01:06:32;;;;;;;22.83;11.07;;;5.60;99.90;;;;;;4407689;32;20409;-63
2021/10/09 01:09:00;;;;;;;19.70;11.10;;;5.60;99.90;;;;;;4407775;32;20170;-64
2021/10/09 01:11:29;;;;;;;22.80;10.67;;;5.60;99.90;;;;;;4409672;32;20141;-64
2021/10/09 01:13:56;;;;;;;23.50;10.67;;;5.60;99.90;;;;;;4412388;32;20140;-64
2021/10/09 01:16:28;;;;;;;20.87;11.40;;;5.60;99.90;;;;;;4412804;32;20188;-64
2021/10/09 01:18:57;;;;;;;21.63;10.33;;;5.60;99.90;;;;;;4412595;32;20209;-65
2021/10/09 01:21:25;;;;;;;24.50;11.07;;;5.50;99.90;;;;;;4415405;32;20260;-63
2021/10/09 01:23:53;;;;;;;22.27;11.20;;;5.40;99.90;;;;;;4415148;32;20195;-63
2021/10/09 01:26:20;;;;;;;22.57;11.00;;;5.40;99.90;;;;;;4412488;32;20207;-64
2021/10/09 01:28:49;;;;;;;22.47;10.97;;;5.40;99.90;;;;;;4410090;32;20124;-63
2021/10/09 01:31:17;;;;;;;21.47;11.17;;;5.40;99.90;;;;;;4410636;32;20144;-64
2021/10/09 01:33:45;;;;;;;19.63;10.53;;;5.40;99.90;;;;;;4412352;32;20141;-65
2021/10/09 01:36:12;;;;;;;20.17;11.20;;;5.30;99.90;;;;;;4410821;32;20143;-63
2021/10/09 01:38:39;;;;;;;23.53;10.73;;;5.20;99.90;;;;;;4409865;32;20225;-64
2021/10/09 01:41:07;;;;;;;21.37;10.90;;;5.20;99.90;;;;;;4412267;32;20188;-63
2021/10/09 01:43:34;;;;;;;19.53;11.20;;;5.10;99.90;;;;;;4411559;32;20189;-64
2021/10/09 01:46:01;;;;;;;23.87;10.73;;;5.10;99.90;;;;;;4410730;32;20137;-64
2021/10/09 01:48:35;;;;;;;22.73;10.70;;;5.00;99.90;;;;;;4411781;32;20162;-63
2021/10/09 01:51:03;;;;;;;21.40;11.33;;;5.00;99.90;;;;;;4398667;32;20183;-63
2021/10/09 01:53:30;;;;;;;18.90;10.70;;;5.00;99.90;;;;;;4410277;32;20480;-63
2021/10/09 01:55:57;;;;;;;22.13;10.67;;;5.00;99.90;;;;;;4410165;32;20246;-64
2021/10/09 01:58:24;;;;;;;20.10;10.07;;;5.00;99.90;;;;;;4410396;32;20138;-64
2021/10/09 02:00:51;;;;;;;20.67;10.37;;;5.00;99.90;;;;;;4410513;32;20137;-64
2021/10/09 02:03:20;;;;;;;19.93;10.27;;;5.00;99.90;;;;;;4415630;32;20154;-64
2021/10/09 02:05:47;;;;;;;17.87;10.37;;;4.90;99.90;;;;;;4414441;32;20143;-64
2021/10/09 02:08:14;;;;;;;20.97;10.20;;;5.00;99.90;;;;;;4411552;32;20187;-64
2021/10/09 02:10:56;;;;;;;18.93;10.50;;;5.00;99.90;;;;;;4412014;32;20134;-64
2021/10/09 02:13:29;;;;;;;20.73;10.23;;;4.90;99.90;;;;;;4411554;32;20138;-63
2021/10/09 02:16:04;;;;;;;20.67;10.27;;;4.80;99.90;;;;;;4411771;32;20181;-64
2021/10/09 02:18:47;;;;;;;19.43;9.97;;;4.80;99.90;;;;;;4410422;32;20124;-64
2021/10/09 02:24:32;;;;;;;22.70;10.77;;;4.70;99.90;;;;;;4378990;32;20163;-64
2021/10/09 02:26:59;;;;;;;20.30;10.53;;;4.60;99.90;;;;;;4379060;32;20168;-64
2021/10/09 02:29:26;;;;;;;20.43;10.23;;;4.60;99.90;;;;;;4378575;32;20256;-65
2021/10/09 02:31:56;;;;;;;19.53;10.37;;;4.60;99.90;;;;;;4379176;32;20436;-64
2021/10/09 02:34:23;;;;;;;20.40;10.33;;;4.70;99.90;;;;;;4378321;32;20197;-63
2021/10/09 02:36:50;;;;;;;26.33;10.33;;;4.70;99.90;;;;;;4379407;32;20245;-64
2021/10/09 02:39:17;;;;;;;19.57;10.10;;;4.70;99.90;;;;;;4400181;32;20201;-64
2021/10/09 02:41:44;;;;;;;18.80;9.80;;;4.70;99.90;;;;;;4391786;32;20212;-63
2021/10/09 02:44:10;;;;;;;19.87;10.10;;;4.80;99.90;;;;;;4392454;32;20537;-64
2021/10/09 02:46:37;;;;;;;19.27;10.30;;;4.70;99.90;;;;;;4392753;32;20142;-64
2021/10/09 02:49:05;;;;;;;20.60;10.57;;;4.60;99.90;;;;;;4393973;32;20207;-62
2021/10/09 02:51:31;;;;;;;20.40;10.00;;;4.70;99.90;;;;;;4392227;32;20192;-64
2021/10/09 02:53:58;;;;;;;18.40;9.83;;;4.70;99.90;;;;;;4394075;32;20187;-63
2021/10/09 02:56:25;;;;;;;20.67;9.90;;;4.70;99.90;;;;;;4409093;32;20223;-63
2021/10/09 02:58:52;;;;;;;21.30;10.00;;;4.60;99.90;;;;;;4409049;32;20145;-63
2021/10/09 03:01:19;;;;;;;20.83;9.50;;;4.60;99.90;;;;;;4409490;32;20223;-64
2021/10/09 03:03:46;;;;;;;18.03;9.77;;;4.60;99.90;;;;;;4409346;32;20184;-63
2021/10/09 03:06:13;;;;;;;17.83;9.63;;;4.60;99.90;;;;;;4409151;32;20491;-64
2021/10/09 03:08:40;;;;;;;20.83;9.90;;;4.50;99.90;;;;;;4411206;32;20134;-64
2021/10/09 03:11:06;;;;;;;19.33;9.83;;;4.50;99.90;;;;;;4410210;32;20196;-63
2021/10/09 03:13:33;;;;;;;23.13;9.80;;;4.50;99.90;;;;;;4418214;32;20160;-63
2021/10/09 03:16:00;;;;;;;17.50;9.57;;;4.50;99.90;;;;;;4410909;32;20198;-64
2021/10/09 03:18:26;;;;;;;20.13;10.40;;;4.50;99.90;;;;;;4409299;32;20454;-64
2021/10/09 03:20:53;;;;;;;19.33;9.83;;;4.60;99.90;;;;;;4408795;32;20146;-63
2021/10/09 03:23:20;;;;;;;17.97;9.43;;;4.70;99.90;;;;;;4408484;32;20135;-63
2021/10/09 03:25:47;;;;;;;18.67;9.40;;;4.60;99.90;;;;;;4410507;32;20491;-63
2021/10/09 03:28:13;;;;;;;19.87;9.37;;;4.60;99.90;;;;;;4410813;32;20184;-63
2021/10/09 03:30:40;;;;;;;21.17;10.20;;;4.70;99.90;;;;;;4409068;32;20134;-63
2021/10/09 03:33:07;;;;;;;17.53;9.60;;;4.60;99.90;;;;;;4408697;32;20192;-63
2021/10/09 03:35:34;;;;;;;19.73;9.77;;;4.60;99.90;;;;;;4408044;32;20169;-64
2021/10/09 03:38:01;;;;;;;18.87;9.60;;;4.70;99.90;;;;;;4409445;32;20157;-64
2021/10/09 03:40:29;;;;;;;20.30;10.07;;;4.70;99.90;;;;;;4410659;32;20252;-63
2021/10/09 03:43:02;;;;;;;18.00;9.70;;;4.70;99.90;;;;;;4408719;32;20515;-64
2021/10/09 03:45:40;;;;;;;17.70;9.70;;;4.70;99.90;;;;;;4411458;32;20239;-64
2021/10/09 03:53:06;;;;;;;17.87;10.07;;;4.50;99.90;;;;;;4410126;32;20191;-64
2021/10/09 03:55:33;;;;;;;18.77;10.13;;;4.50;99.90;;;;;;4409497;32;20188;-63
2021/10/09 03:58:00;;;;;;;17.30;9.50;;;4.40;99.90;;;;;;4408668;32;20195;-64
2021/10/09 04:00:27;;;;;;;21.40;10.10;;;4.40;99.90;;;;;;4410364;32;20194;-64
2021/10/09 04:02:54;;;;;;;20.87;10.77;;;4.40;99.90;;;;;;4408833;32;20134;-63
2021/10/09 04:05:20;;;;;;;21.83;9.93;;;4.40;99.90;;;;;;4408536;32;20137;-64
2021/10/09 04:07:47;;;;;;;18.37;9.63;;;4.40;99.90;;;;;;4408215;32;20178;-64
2021/10/09 04:10:16;;;;;;;20.20;10.17;;;4.40;99.90;;;;;;4410266;32;20182;-64
2021/10/09 04:12:43;;;;;;;17.70;9.80;;;4.40;99.90;;;;;;4409121;32;20149;-64
2021/10/09 04:15:10;;;;;;;18.10;9.30;;;4.40;99.90;;;;;;4409774;32;20481;-64
2021/10/09 04:17:37;;;;;;;18.73;9.47;;;4.30;99.90;;;;;;4410148;32;20526;-64
2021/10/09 04:20:04;;;;;;;19.20;9.67;;;4.30;99.90;;;;;;4416419;32;20565;-65
2021/10/09 04:22:31;;;;;;;18.80;10.20;;;4.30;99.90;;;;;;4409056;32;20127;-65
2021/10/09 04:24:58;;;;;;;17.83;10.27;;;4.30;99.90;;;;;;4408237;32;20145;-65
2021/10/09 04:27:24;;;;;;;22.47;10.23;;;4.30;99.90;;;;;;4407929;32;20155;-64
2021/10/09 04:29:51;;;;;;;17.83;9.53;;;4.30;99.90;;;;;;4408088;32;20132;-65
2021/10/09 04:32:18;;;;;;;19.27;10.00;;;4.30;99.90;;;;;;4408195;32;20198;-65
2021/10/09 04:34:44;;;;;;;19.83;9.57;;;4.20;99.90;;;;;;4407852;32;20540;-65
2021/10/09 04:37:11;;;;;;;19.03;9.87;;;4.30;99.90;;;;;;4408009;32;20143;-65
2021/10/09 04:39:38;;;;;;;18.33;10.03;;;4.30;99.90;;;;;;4409163;32;20136;-66
2021/10/09 04:42:06;;;;;;;17.97;9.77;;;4.30;99.90;;;;;;4410116;32;20213;-64
2021/10/09 04:44:33;;;;;;;19.77;10.47;;;4.30;99.90;;;;;;4407778;32;20459;-64
2021/10/09 04:47:00;;;;;;;18.30;9.73;;;4.20;99.90;;;;;;4411793;32;20167;-64
2021/10/09 04:49:26;;;;;;;19.63;10.07;;;4.20;99.90;;;;;;4413024;32;20139;-64
2021/10/09 04:51:53;;;;;;;19.40;10.20;;;4.30;99.90;;;;;;4410801;32;20451;-64
2021/10/09 04:54:20;;;;;;;18.93;9.53;;;4.20;99.90;;;;;;4410765;32;20263;-65
2021/10/09 04:56:47;;;;;;;19.37;10.20;;;4.20;99.90;;;;;;4411058;32;20215;-65
2021/10/09 04:59:13;;;;;;;17.57;10.10;;;4.20;99.90;;;;;;4411374;32;20178;-64
2021/10/09 05:01:40;;;;;;;17.33;9.63;;;4.10;99.90;;;;;;4410651;32;20183;-64
2021/10/09 05:04:07;;;;;;;19.67;10.83;;;4.10;99.90;;;;;;4412607;32;20456;-64
2021/10/09 05:06:34;;;;;;;20.93;10.23;;;4.10;99.90;;;;;;4420102;32;20177;-65
2021/10/09 05:09:00;;;;;;;19.53;10.23;;;4.10;99.90;;;;;;4411465;32;20141;-65
2021/10/09 05:11:27;;;;;;;21.97;10.10;;;4.00;99.90;;;;;;4412559;32;20463;-65
2021/10/09 05:13:55;;;;;;;20.87;10.00;;;4.00;99.90;;;;;;4412380;32;20186;-65
2021/10/09 05:16:21;;;;;;;18.60;9.97;;;3.90;99.90;;;;;;4412589;32;20240;-65
2021/10/09 05:18:48;;;;;;;18.80;10.17;;;3.90;99.90;;;;;;4412022;32;20153;-65
2021/10/09 05:21:15;;;;;;;21.33;10.47;;;3.90;99.90;;;;;;4410357;32;20137;-64
2021/10/09 05:23:42;;;;;;;18.47;10.07;;;3.90;99.90;;;;;;4411588;32;20126;-65
2021/10/09 05:26:09;;;;;;;18.80;9.80;;;3.90;99.90;;;;;;4410441;32;20264;-65
2021/10/09 05:28:46;;;;;;;19.13;10.00;;;3.80;99.90;;;;;;4412134;32;20156;-65
2021/10/09 05:31:25;;;;;;;19.90;10.60;;;3.80;99.90;;;;;;4412436;32;20395;-66
2021/10/09 05:33:53;;;;;;;19.13;9.80;;;3.90;99.90;;;;;;4411865;32;20487;-66
2021/10/09 05:36:21;;;;;;;19.43;10.20;;;3.90;99.90;;;;;;4411871;32;20178;-66
2021/10/09 05:38:49;;;;;;;18.37;10.07;;;3.90;99.90;;;;;;4410146;32;20199;-64
2021/10/09 05:41:16;;;;;;;18.67;10.27;;;3.90;99.90;;;;;;4410421;32;20216;-65
2021/10/09 05:43:44;;;;;;;20.03;10.13;;;4.00;99.90;;;;;;4412127;32;20131;-65
2021/10/09 05:46:12;;;;;;;18.70;10.23;;;4.00;99.90;;;;;;4415059;32;20235;-65
2021/10/09 05:48:40;;;;;;;18.00;9.83;;;4.00;99.90;;;;;;4423195;32;20144;-65
2021/10/09 05:51:27;;;;;;;18.30;10.47;;;4.10;99.90;;;;;;4426351;32;20142;-66
2021/10/09 05:54:18;;;;;;;20.03;9.93;;;4.10;99.90;;;;;;4425569;32;20140;-66
